sensor_id;sensor_type;location;lat;lon;timestamp;noise_LAeq;noise_LA_min;noise_LA_max;noise_LA01;noise_LA95
82857;Laerm;72620;47.774;9.620;2024-03-08T00:00:13;49.87;48.25;51.52;;
82857;Laerm;72620;47.774;9.620;2024-03-08T00:02:43;56.61;48.24;70.77;;
82857;Laerm;72620;47.774;9.620;2024-03-08T00:05:12;52.79;47.82;67.13;;
82857;Laerm;72620;47.774;9.620;2024-03-08T00:07:41;54.53;47.82;69.98;;
82857;Laerm;72620;47.774;9.620;2024-03-08T00:10:11;51.62;48.02;62.27;;
82857;Laerm;72620;47.774;9.620;2024-03-08T00:12:43;51.49;48.09;63.29;;
82857;Laerm;72620;47.774;9.620;2024-03-08T00:15:16;49.00;47.87;50.29;;
82857;Laerm;72620;47.774;9.620;2024-03-08T00:17:46;49.10;48.00;50.39;;
82857;Laerm;72620;47.774;9.620;2024-03-08T00:20:16;52.30;48.11;65.73;;
82857;Laerm;72620;47.774;9.620;2024-03-08T00:22:46;49.56;47.88;55.63;;
82857;Laerm;72620;47.774;9.620;2024-03-08T00:25:13;56.34;48.16;71.28;;
82857;Laerm;72620;47.774;9.620;2024-03-08T00:27:40;54.63;48.41;63.68;;
82857;Laerm;72620;47.774;9.620;2024-03-08T00:30:12;54.92;48.30;63.53;;
82857;Laerm;72620;47.774;9.620;2024-03-08T00:32:42;49.76;48.58;66.39;;
82857;Laerm;72620;47.774;9.620;2024-03-08T00:35:11;51.10;46.63;61.94;;
82857;Laerm;72620;47.774;9.620;2024-03-08T00:37:39;55.25;47.13;66.38;;
82857;Laerm;72620;47.774;9.620;2024-03-08T00:40:07;54.69;47.02;68.00;;
82857;Laerm;72620;47.774;9.620;2024-03-08T00:42:36;53.51;47.46;66.04;;
82857;Laerm;72620;47.774;9.620;2024-03-08T00:45:05;52.89;48.68;62.03;;
82857;Laerm;72620;47.774;9.620;2024-03-08T00:47:33;51.34;48.64;60.91;;
82857;Laerm;72620;47.774;9.620;2024-03-08T00:50:00;57.25;48.64;71.60;;
82857;Laerm;72620;47.774;9.620;2024-03-08T00:52:31;52.44;48.16;66.92;;
82857;Laerm;72620;47.774;9.620;2024-03-08T00:54:58;49.06;47.96;50.51;;
82857;Laerm;72620;47.774;9.620;2024-03-08T00:57:25;51.23;47.90;63.53;;
82857;Laerm;72620;47.774;9.620;2024-03-08T00:59:52;52.14;47.93;62.01;;
82857;Laerm;72620;47.774;9.620;2024-03-08T01:02:20;56.98;47.87;72.46;;
82857;Laerm;72620;47.774;9.620;2024-03-08T01:04:48;52.68;48.09;67.16;;
82857;Laerm;72620;47.774;9.620;2024-03-08T01:07:15;60.14;48.04;71.58;;
82857;Laerm;72620;47.774;9.620;2024-03-08T01:09:42;55.04;48.30;68.64;;
82857;Laerm;72620;47.774;9.620;2024-03-08T01:12:09;56.31;48.53;66.94;;
82857;Laerm;72620;47.774;9.620;2024-03-08T01:14:37;51.32;48.53;60.94;;
82857;Laerm;72620;47.774;9.620;2024-03-08T01:17:05;49.41;48.44;51.75;;
82857;Laerm;72620;47.774;9.620;2024-03-08T01:19:33;49.32;48.23;50.53;;
82857;Laerm;72620;47.774;9.620;2024-03-08T01:22:00;56.82;48.15;73.27;;
82857;Laerm;72620;47.774;9.620;2024-03-08T01:24:28;52.76;47.99;67.06;;
82857;Laerm;72620;47.774;9.620;2024-03-08T01:26:55;57.74;48.06;72.62;;
82857;Laerm;72620;47.774;9.620;2024-03-08T01:29:22;57.72;48.38;72.81;;
82857;Laerm;72620;47.774;9.620;2024-03-08T01:31:49;51.87;48.46;65.50;;
82857;Laerm;72620;47.774;9.620;2024-03-08T01:34:16;53.75;48.30;64.84;;
82857;Laerm;72620;47.774;9.620;2024-03-08T01:36:44;54.31;48.42;69.13;;
82857;Laerm;72620;47.774;9.620;2024-03-08T01:39:12;57.00;48.64;72.73;;
82857;Laerm;72620;47.774;9.620;2024-03-08T01:41:39;55.77;46.76;69.53;;
82857;Laerm;72620;47.774;9.620;2024-03-08T01:44:07;54.19;47.05;67.42;;
82857;Laerm;72620;47.774;9.620;2024-03-08T01:46:35;53.45;47.19;65.38;;
82857;Laerm;72620;47.774;9.620;2024-03-08T01:49:03;56.58;47.23;69.87;;
82857;Laerm;72620;47.774;9.620;2024-03-08T01:51:31;54.84;48.11;68.87;;
82857;Laerm;72620;47.774;9.620;2024-03-08T01:54:02;56.14;48.14;67.88;;
82857;Laerm;72620;47.774;9.620;2024-03-08T01:56:30;52.79;47.84;66.38;;
82857;Laerm;72620;47.774;9.620;2024-03-08T01:58:59;56.08;47.73;69.44;;
82857;Laerm;72620;47.774;9.620;2024-03-08T02:01:28;58.18;47.71;72.19;;
82857;Laerm;72620;47.774;9.620;2024-03-08T02:03:55;48.83;47.78;51.19;;
82857;Laerm;72620;47.774;9.620;2024-03-08T02:06:23;60.26;48.15;71.73;;
82857;Laerm;72620;47.774;9.620;2024-03-08T02:08:51;51.91;47.82;64.46;;
82857;Laerm;72620;47.774;9.620;2024-03-08T02:11:19;48.90;47.79;50.32;;
82857;Laerm;72620;47.774;9.620;2024-03-08T02:13:47;49.06;47.99;52.07;;
82857;Laerm;72620;47.774;9.620;2024-03-08T02:16:21;55.67;47.73;67.29;;
82857;Laerm;72620;47.774;9.620;2024-03-08T02:18:49;52.67;48.01;66.41;;
82857;Laerm;72620;47.774;9.620;2024-03-08T02:21:18;48.86;47.69;50.81;;
82857;Laerm;72620;47.774;9.620;2024-03-08T02:23:46;48.92;47.75;50.13;;
82857;Laerm;72620;47.774;9.620;2024-03-08T02:26:14;59.38;48.05;71.96;;
82857;Laerm;72620;47.774;9.620;2024-03-08T02:28:41;53.54;48.17;68.80;;
82857;Laerm;72620;47.774;9.620;2024-03-08T02:31:10;56.00;48.28;67.91;;
82857;Laerm;72620;47.774;9.620;2024-03-08T02:33:37;60.71;48.36;74.34;;
82857;Laerm;72620;47.774;9.620;2024-03-08T02:36:06;55.20;48.59;64.58;;
82857;Laerm;72620;47.774;9.620;2024-03-08T02:38:33;61.76;48.67;74.50;;
82857;Laerm;72620;47.774;9.620;2024-03-08T02:41:00;49.49;48.39;50.89;;
82857;Laerm;72620;47.774;9.620;2024-03-08T02:43:27;56.26;48.63;70.71;;
82857;Laerm;72620;47.774;9.620;2024-03-08T02:45:54;53.00;46.78;65.80;;
82857;Laerm;72620;47.774;9.620;2024-03-08T02:48:22;58.71;46.61;73.13;;
82857;Laerm;72620;47.774;9.620;2024-03-08T02:50:49;56.34;46.81;68.00;;
82857;Laerm;72620;47.774;9.620;2024-03-08T02:53:18;51.50;47.38;63.78;;
82857;Laerm;72620;47.774;9.620;2024-03-08T02:55:49;55.45;47.63;67.93;;
82857;Laerm;72620;47.774;9.620;2024-03-08T02:58:16;59.97;47.50;76.22;;
82857;Laerm;72620;47.774;9.620;2024-03-08T03:00:43;50.91;47.34;61.28;;
82857;Laerm;72620;47.774;9.620;2024-03-08T03:03:11;55.71;47.30;69.68;;
82857;Laerm;72620;47.774;9.620;2024-03-08T03:05:39;56.31;47.61;70.03;;
82857;Laerm;72620;47.774;9.620;2024-03-08T03:08:14;57.87;47.70;70.33;;
82857;Laerm;72620;47.774;9.620;2024-03-08T03:10:42;49.02;47.66;50.41;;
82857;Laerm;72620;47.774;9.620;2024-03-08T03:13:09;53.72;48.06;65.87;;
82857;Laerm;72620;47.774;9.620;2024-03-08T03:15:36;55.81;48.04;67.26;;
82857;Laerm;72620;47.774;9.620;2024-03-08T03:18:04;56.08;48.09;67.25;;
82857;Laerm;72620;47.774;9.620;2024-03-08T03:20:35;51.95;47.88;66.96;;
82857;Laerm;72620;47.774;9.620;2024-03-08T03:23:09;56.08;47.53;67.92;;
82857;Laerm;72620;47.774;9.620;2024-03-08T03:25:36;57.22;47.86;69.04;;
82857;Laerm;72620;47.774;9.620;2024-03-08T03:28:05;58.88;47.82;72.45;;
82857;Laerm;72620;47.774;9.620;2024-03-08T03:30:35;55.28;48.05;66.57;;
82857;Laerm;72620;47.774;9.620;2024-03-08T03:33:03;61.01;48.83;72.70;;
82857;Laerm;72620;47.774;9.620;2024-03-08T03:35:35;52.51;47.67;65.88;;
82857;Laerm;72620;47.774;9.620;2024-03-08T03:38:04;56.53;46.70;68.31;;
82857;Laerm;72620;47.774;9.620;2024-03-08T03:40:36;54.06;46.70;67.10;;
82857;Laerm;72620;47.774;9.620;2024-03-08T03:43:04;49.47;46.56;58.65;;
82857;Laerm;72620;47.774;9.620;2024-03-08T03:45:31;59.19;46.59;70.68;;
82857;Laerm;72620;47.774;9.620;2024-03-08T03:48:05;56.68;46.70;69.29;;
82857;Laerm;72620;47.774;9.620;2024-03-08T03:50:38;61.68;47.27;73.26;;
82857;Laerm;72620;47.774;9.620;2024-03-08T03:53:07;53.61;46.58;68.20;;
82857;Laerm;72620;47.774;9.620;2024-03-08T03:55:37;59.39;46.85;72.56;;
82857;Laerm;72620;47.774;9.620;2024-03-08T03:58:08;58.35;46.64;71.98;;
82857;Laerm;72620;47.774;9.620;2024-03-08T04:00:37;54.61;46.55;68.44;;
82857;Laerm;72620;47.774;9.620;2024-03-08T04:03:05;54.62;46.59;67.12;;
82857;Laerm;72620;47.774;9.620;2024-03-08T04:05:33;53.48;46.99;66.77;;
82857;Laerm;72620;47.774;9.620;2024-03-08T04:08:00;59.74;46.38;70.26;;
82857;Laerm;72620;47.774;9.620;2024-03-08T04:10:27;59.04;47.15;68.19;;
82857;Laerm;72620;47.774;9.620;2024-03-08T04:12:54;59.01;47.00;69.47;;
82857;Laerm;72620;47.774;9.620;2024-03-08T04:15:23;58.73;47.79;68.80;;
82857;Laerm;72620;47.774;9.620;2024-03-08T04:17:50;62.48;48.47;74.96;;
82857;Laerm;72620;47.774;9.620;2024-03-08T04:20:18;62.61;51.75;73.46;;
82857;Laerm;72620;47.774;9.620;2024-03-08T04:22:45;60.14;51.21;71.50;;
82857;Laerm;72620;47.774;9.620;2024-03-08T04:25:15;62.71;51.70;73.76;;
82857;Laerm;72620;47.774;9.620;2024-03-08T04:27:42;62.20;52.01;71.16;;
82857;Laerm;72620;47.774;9.620;2024-03-08T04:30:10;63.37;50.15;71.28;;
82857;Laerm;72620;47.774;9.620;2024-03-08T04:32:37;60.69;46.80;68.04;;
82857;Laerm;72620;47.774;9.620;2024-03-08T04:35:05;64.93;49.79;74.24;;
82857;Laerm;72620;47.774;9.620;2024-03-08T04:37:32;63.01;49.41;75.15;;
82857;Laerm;72620;47.774;9.620;2024-03-08T04:39:59;64.74;52.34;73.57;;
82857;Laerm;72620;47.774;9.620;2024-03-08T04:42:31;64.87;52.08;73.29;;
82857;Laerm;72620;47.774;9.620;2024-03-08T04:45:00;63.08;52.48;69.99;;
82857;Laerm;72620;47.774;9.620;2024-03-08T04:47:27;63.52;53.29;71.83;;
82857;Laerm;72620;47.774;9.620;2024-03-08T04:49:55;65.45;51.47;73.68;;
82857;Laerm;72620;47.774;9.620;2024-03-08T04:52:23;63.22;50.60;69.67;;
82857;Laerm;72620;47.774;9.620;2024-03-08T04:54:50;63.01;50.28;72.23;;
82857;Laerm;72620;47.774;9.620;2024-03-08T04:57:17;63.07;48.85;70.35;;
82857;Laerm;72620;47.774;9.620;2024-03-08T04:59:46;64.71;51.58;74.76;;
82857;Laerm;72620;47.774;9.620;2024-03-08T05:02:13;64.50;51.79;70.91;;
82857;Laerm;72620;47.774;9.620;2024-03-08T05:04:40;63.87;51.19;70.54;;
82857;Laerm;72620;47.774;9.620;2024-03-08T05:07:09;62.66;49.63;70.38;;
82857;Laerm;72620;47.774;9.620;2024-03-08T05:09:37;65.99;52.34;72.76;;
82857;Laerm;72620;47.774;9.620;2024-03-08T05:12:05;62.43;49.49;70.67;;
82857;Laerm;72620;47.774;9.620;2024-03-08T05:14:32;63.97;51.09;72.66;;
82857;Laerm;72620;47.774;9.620;2024-03-08T05:17:00;63.66;49.62;71.66;;
82857;Laerm;72620;47.774;9.620;2024-03-08T05:19:28;64.13;50.37;73.26;;
82857;Laerm;72620;47.774;9.620;2024-03-08T05:22:00;64.34;49.62;70.51;;
82857;Laerm;72620;47.774;9.620;2024-03-08T05:24:27;67.14;54.70;73.84;;
82857;Laerm;72620;47.774;9.620;2024-03-08T05:26:57;63.73;51.94;70.14;;
82857;Laerm;72620;47.774;9.620;2024-03-08T05:29:24;66.09;50.16;73.78;;
82857;Laerm;72620;47.774;9.620;2024-03-08T05:31:52;65.21;51.18;71.20;;
82857;Laerm;72620;47.774;9.620;2024-03-08T05:34:19;65.02;52.37;73.38;;
82857;Laerm;72620;47.774;9.620;2024-03-08T05:36:49;65.72;53.29;72.49;;
82857;Laerm;72620;47.774;9.620;2024-03-08T05:39:18;67.18;53.18;72.93;;
82857;Laerm;72620;47.774;9.620;2024-03-08T05:41:47;65.33;50.53;71.86;;
82857;Laerm;72620;47.774;9.620;2024-03-08T05:44:15;66.89;55.01;73.96;;
82857;Laerm;72620;47.774;9.620;2024-03-08T05:46:44;67.65;53.50;74.45;;
82857;Laerm;72620;47.774;9.620;2024-03-08T05:49:14;65.87;54.90;72.81;;
82857;Laerm;72620;47.774;9.620;2024-03-08T05:51:42;66.65;54.48;72.40;;
82857;Laerm;72620;47.774;9.620;2024-03-08T05:54:11;67.52;54.70;76.77;;
82857;Laerm;72620;47.774;9.620;2024-03-08T05:56:43;66.44;53.22;73.25;;
82857;Laerm;72620;47.774;9.620;2024-03-08T05:59:13;65.44;51.73;71.99;;
82857;Laerm;72620;47.774;9.620;2024-03-08T06:01:40;66.54;52.27;72.47;;
82857;Laerm;72620;47.774;9.620;2024-03-08T06:04:09;66.26;53.78;75.30;;
82857;Laerm;72620;47.774;9.620;2024-03-08T06:06:39;68.34;55.05;76.42;;
82857;Laerm;72620;47.774;9.620;2024-03-08T06:09:07;68.08;57.48;76.69;;
82857;Laerm;72620;47.774;9.620;2024-03-08T06:11:44;67.67;56.14;76.36;;
82857;Laerm;72620;47.774;9.620;2024-03-08T06:14:12;66.71;59.29;71.23;;
82857;Laerm;72620;47.774;9.620;2024-03-08T06:16:39;67.70;57.02;73.53;;
82857;Laerm;72620;47.774;9.620;2024-03-08T06:19:06;66.78;56.06;72.90;;
82857;Laerm;72620;47.774;9.620;2024-03-08T06:21:33;67.63;53.53;74.77;;
82857;Laerm;72620;47.774;9.620;2024-03-08T06:24:00;68.01;52.68;77.47;;
82857;Laerm;72620;47.774;9.620;2024-03-08T06:26:28;67.31;55.42;75.16;;
82857;Laerm;72620;47.774;9.620;2024-03-08T06:28:57;65.16;48.92;71.05;;
82857;Laerm;72620;47.774;9.620;2024-03-08T06:31:25;67.04;54.74;72.81;;
82857;Laerm;72620;47.774;9.620;2024-03-08T06:33:52;66.68;53.51;74.11;;
82857;Laerm;72620;47.774;9.620;2024-03-08T06:36:23;66.21;50.15;73.57;;
82857;Laerm;72620;47.774;9.620;2024-03-08T06:38:51;67.13;52.45;72.60;;
82857;Laerm;72620;47.774;9.620;2024-03-08T06:41:18;66.82;53.28;71.65;;
82857;Laerm;72620;47.774;9.620;2024-03-08T06:43:47;68.87;51.43;82.48;;
82857;Laerm;72620;47.774;9.620;2024-03-08T06:46:15;67.77;52.57;74.75;;
82857;Laerm;72620;47.774;9.620;2024-03-08T06:48:43;67.71;53.23;72.51;;
82857;Laerm;72620;47.774;9.620;2024-03-08T06:51:12;68.93;58.69;80.80;;
82857;Laerm;72620;47.774;9.620;2024-03-08T06:53:39;67.52;59.13;72.23;;
82857;Laerm;72620;47.774;9.620;2024-03-08T06:56:08;68.26;53.99;80.51;;
82857;Laerm;72620;47.774;9.620;2024-03-08T06:58:35;67.69;55.08;72.56;;
82857;Laerm;72620;47.774;9.620;2024-03-08T07:01:03;67.96;54.19;74.51;;
82857;Laerm;72620;47.774;9.620;2024-03-08T07:03:35;68.04;55.63;76.46;;
82857;Laerm;72620;47.774;9.620;2024-03-08T07:06:02;67.08;55.25;73.94;;
82857;Laerm;72620;47.774;9.620;2024-03-08T07:08:30;68.19;53.60;73.18;;
82857;Laerm;72620;47.774;9.620;2024-03-08T07:10:57;66.71;52.54;76.37;;
82857;Laerm;72620;47.774;9.620;2024-03-08T07:13:26;67.45;54.94;76.48;;
82857;Laerm;72620;47.774;9.620;2024-03-08T07:15:55;67.67;54.99;75.43;;
82857;Laerm;72620;47.774;9.620;2024-03-08T07:18:23;67.43;55.71;75.19;;
82857;Laerm;72620;47.774;9.620;2024-03-08T07:20:50;66.58;53.84;75.79;;
82857;Laerm;72620;47.774;9.620;2024-03-08T07:23:17;66.45;55.87;73.55;;
82857;Laerm;72620;47.774;9.620;2024-03-08T07:26:04;68.06;56.91;75.60;;
82857;Laerm;72620;47.774;9.620;2024-03-08T07:28:31;66.30;53.98;72.35;;
82857;Laerm;72620;47.774;9.620;2024-03-08T07:30:59;65.80;55.05;72.23;;
82857;Laerm;72620;47.774;9.620;2024-03-08T07:33:39;65.64;51.75;73.70;;
82857;Laerm;72620;47.774;9.620;2024-03-08T07:36:07;68.01;54.98;73.57;;
82857;Laerm;72620;47.774;9.620;2024-03-08T07:38:35;67.03;56.23;75.19;;
82857;Laerm;72620;47.774;9.620;2024-03-08T07:41:02;67.68;52.40;73.74;;
82857;Laerm;72620;47.774;9.620;2024-03-08T07:43:31;66.91;52.23;75.15;;
82857;Laerm;72620;47.774;9.620;2024-03-08T07:45:59;68.06;56.48;74.80;;
82857;Laerm;72620;47.774;9.620;2024-03-08T07:48:27;67.74;58.26;73.35;;
82857;Laerm;72620;47.774;9.620;2024-03-08T07:50:55;66.88;53.57;76.61;;
82857;Laerm;72620;47.774;9.620;2024-03-08T07:53:22;66.49;54.88;73.48;;
82857;Laerm;72620;47.774;9.620;2024-03-08T07:55:51;65.89;55.03;73.11;;
82857;Laerm;72620;47.774;9.620;2024-03-08T07:58:18;66.86;54.44;73.54;;
82857;Laerm;72620;47.774;9.620;2024-03-08T08:00:46;66.78;52.14;75.05;;
82857;Laerm;72620;47.774;9.620;2024-03-08T08:03:13;66.11;53.92;74.19;;
82857;Laerm;72620;47.774;9.620;2024-03-08T08:05:40;67.06;54.31;74.76;;
82857;Laerm;72620;47.774;9.620;2024-03-08T08:08:08;66.91;57.42;73.18;;
82857;Laerm;72620;47.774;9.620;2024-03-08T08:10:38;67.76;58.14;76.64;;
82857;Laerm;72620;47.774;9.620;2024-03-08T08:13:06;66.89;54.81;76.46;;
82857;Laerm;72620;47.774;9.620;2024-03-08T08:15:33;66.28;52.76;81.79;;
82857;Laerm;72620;47.774;9.620;2024-03-08T08:18:03;67.83;58.26;81.27;;
82857;Laerm;72620;47.774;9.620;2024-03-08T08:20:33;66.00;52.63;74.93;;
82857;Laerm;72620;47.774;9.620;2024-03-08T08:23:01;66.61;52.37;74.39;;
82857;Laerm;72620;47.774;9.620;2024-03-08T08:25:28;66.51;53.81;82.94;;
82857;Laerm;72620;47.774;9.620;2024-03-08T08:27:56;65.57;55.50;73.19;;
82857;Laerm;72620;47.774;9.620;2024-03-08T08:30:23;65.77;55.76;71.72;;
82857;Laerm;72620;47.774;9.620;2024-03-08T08:32:50;65.28;52.20;72.21;;
82857;Laerm;72620;47.774;9.620;2024-03-08T08:35:17;66.98;53.40;74.94;;
82857;Laerm;72620;47.774;9.620;2024-03-08T08:37:46;66.34;51.90;73.50;;
82857;Laerm;72620;47.774;9.620;2024-03-08T08:40:14;67.00;52.90;75.57;;
82857;Laerm;72620;47.774;9.620;2024-03-08T08:42:42;65.67;52.92;72.03;;
82857;Laerm;72620;47.774;9.620;2024-03-08T08:45:12;67.42;57.23;75.26;;
82857;Laerm;72620;47.774;9.620;2024-03-08T08:47:44;65.53;53.93;72.38;;
82857;Laerm;72620;47.774;9.620;2024-03-08T08:50:13;65.93;54.63;73.47;;
82857;Laerm;72620;47.774;9.620;2024-03-08T08:52:40;67.46;53.08;77.07;;
82857;Laerm;72620;47.774;9.620;2024-03-08T08:55:07;66.30;51.97;72.49;;
82857;Laerm;72620;47.774;9.620;2024-03-08T08:57:34;67.29;56.54;83.05;;
82857;Laerm;72620;47.774;9.620;2024-03-08T09:00:03;66.88;52.58;77.15;;
82857;Laerm;72620;47.774;9.620;2024-03-08T09:02:42;66.37;55.97;74.10;;
82857;Laerm;72620;47.774;9.620;2024-03-08T09:05:10;68.22;59.11;76.48;;
82857;Laerm;72620;47.774;9.620;2024-03-08T09:07:38;66.88;53.95;74.28;;
82857;Laerm;72620;47.774;9.620;2024-03-08T09:10:06;66.09;54.77;72.52;;
82857;Laerm;72620;47.774;9.620;2024-03-08T09:12:39;65.34;52.64;76.91;;
82857;Laerm;72620;47.774;9.620;2024-03-08T09:15:07;67.99;56.02;76.78;;
82857;Laerm;72620;47.774;9.620;2024-03-08T09:17:41;66.27;54.24;76.03;;
82857;Laerm;72620;47.774;9.620;2024-03-08T09:20:09;65.27;54.68;75.27;;
82857;Laerm;72620;47.774;9.620;2024-03-08T09:22:37;66.74;56.46;72.12;;
82857;Laerm;72620;47.774;9.620;2024-03-08T09:25:05;65.67;54.03;74.63;;
82857;Laerm;72620;47.774;9.620;2024-03-08T09:27:32;66.40;57.10;72.39;;
82857;Laerm;72620;47.774;9.620;2024-03-08T09:30:05;68.22;56.47;77.56;;
82857;Laerm;72620;47.774;9.620;2024-03-08T09:32:34;67.27;55.26;73.65;;
82857;Laerm;72620;47.774;9.620;2024-03-08T09:35:02;66.10;53.47;74.55;;
82857;Laerm;72620;47.774;9.620;2024-03-08T09:37:29;66.04;54.95;72.69;;
82857;Laerm;72620;47.774;9.620;2024-03-08T09:39:57;68.20;53.72;78.58;;
82857;Laerm;72620;47.774;9.620;2024-03-08T09:42:26;67.43;54.75;74.29;;
82857;Laerm;72620;47.774;9.620;2024-03-08T09:44:53;68.95;58.54;77.13;;
82857;Laerm;72620;47.774;9.620;2024-03-08T09:47:24;64.70;52.44;71.36;;
82857;Laerm;72620;47.774;9.620;2024-03-08T09:49:54;66.65;54.96;73.26;;
82857;Laerm;72620;47.774;9.620;2024-03-08T09:52:21;65.47;51.63;71.40;;
82857;Laerm;72620;47.774;9.620;2024-03-08T09:54:48;67.15;52.84;76.46;;
82857;Laerm;72620;47.774;9.620;2024-03-08T09:57:18;66.76;56.97;73.78;;
82857;Laerm;72620;47.774;9.620;2024-03-08T09:59:46;66.94;51.80;76.45;;
82857;Laerm;72620;47.774;9.620;2024-03-08T10:02:16;66.16;53.45;74.30;;
82857;Laerm;72620;47.774;9.620;2024-03-08T10:04:44;66.01;54.78;74.19;;
82857;Laerm;72620;47.774;9.620;2024-03-08T10:07:14;64.97;53.21;71.98;;
82857;Laerm;72620;47.774;9.620;2024-03-08T10:09:42;66.55;54.81;76.90;;
82857;Laerm;72620;47.774;9.620;2024-03-08T10:12:17;64.10;55.64;79.94;;
82857;Laerm;72620;47.774;9.620;2024-03-08T10:14:46;83.63;55.71;98.40;;
82857;Laerm;72620;47.774;9.620;2024-03-08T10:17:13;77.02;56.25;98.37;;
82857;Laerm;72620;47.774;9.620;2024-03-08T10:19:50;78.94;53.85;96.69;;
82857;Laerm;72620;47.774;9.620;2024-03-08T10:22:19;74.15;55.56;92.72;;
82857;Laerm;72620;47.774;9.620;2024-03-08T10:24:47;64.12;54.88;70.82;;
82857;Laerm;72620;47.774;9.620;2024-03-08T10:27:17;63.37;53.99;70.02;;
82857;Laerm;72620;47.774;9.620;2024-03-08T10:29:48;64.28;54.24;71.14;;
82857;Laerm;72620;47.774;9.620;2024-03-08T10:32:15;64.88;53.33;72.49;;
82857;Laerm;72620;47.774;9.620;2024-03-08T10:34:43;63.97;56.02;70.32;;
82857;Laerm;72620;47.774;9.620;2024-03-08T10:37:15;60.88;55.21;68.55;;
82857;Laerm;72620;47.774;9.620;2024-03-08T10:40:04;61.95;55.26;70.40;;
82857;Laerm;72620;47.774;9.620;2024-03-08T10:42:52;61.91;53.90;71.25;;
82857;Laerm;72620;47.774;9.620;2024-03-08T10:45:40;61.53;51.35;69.54;;
82857;Laerm;72620;47.774;9.620;2024-03-08T10:48:29;62.74;52.08;80.61;;
82857;Laerm;72620;47.774;9.620;2024-03-08T10:51:06;62.01;51.46;74.03;;
82857;Laerm;72620;47.774;9.620;2024-03-08T10:53:36;56.85;50.85;69.88;;
82857;Laerm;72620;47.774;9.620;2024-03-08T10:56:04;58.91;50.52;68.91;;
82857;Laerm;72620;47.774;9.620;2024-03-08T10:58:33;59.70;51.08;70.46;;
82857;Laerm;72620;47.774;9.620;2024-03-08T11:01:03;58.64;51.48;66.35;;
82857;Laerm;72620;47.774;9.620;2024-03-08T11:03:48;58.93;51.29;68.66;;
82857;Laerm;72620;47.774;9.620;2024-03-08T11:06:23;60.43;52.17;69.20;;
82857;Laerm;72620;47.774;9.620;2024-03-08T11:08:56;59.28;50.37;67.60;;
82857;Laerm;72620;47.774;9.620;2024-03-08T11:11:33;61.21;51.34;69.75;;
82857;Laerm;72620;47.774;9.620;2024-03-08T11:14:03;62.16;53.07;69.22;;
82857;Laerm;72620;47.774;9.620;2024-03-08T11:21:38;59.58;53.30;67.06;;
82857;Laerm;72620;47.774;9.620;2024-03-08T11:24:12;60.10;52.93;67.54;;
82857;Laerm;72620;47.774;9.620;2024-03-08T11:26:40;61.83;54.05;69.66;;
82857;Laerm;72620;47.774;9.620;2024-03-08T11:32:12;62.44;53.01;71.57;;
82857;Laerm;72620;47.774;9.620;2024-03-08T11:34:43;59.46;51.96;69.21;;
82857;Laerm;72620;47.774;9.620;2024-03-08T11:37:17;60.28;50.06;69.51;;
82857;Laerm;72620;47.774;9.620;2024-03-08T11:39:51;61.22;50.61;67.36;;
82857;Laerm;72620;47.774;9.620;2024-03-08T11:42:19;59.29;50.60;67.95;;
82857;Laerm;72620;47.774;9.620;2024-03-08T11:44:48;59.89;49.79;72.51;;
82857;Laerm;72620;47.774;9.620;2024-03-08T11:47:17;60.47;50.56;70.12;;
82857;Laerm;72620;47.774;9.620;2024-03-08T11:49:45;62.21;50.55;76.06;;
82857;Laerm;72620;47.774;9.620;2024-03-08T11:52:17;61.32;51.40;69.81;;
82857;Laerm;72620;47.774;9.620;2024-03-08T11:54:53;62.12;51.07;68.39;;
82857;Laerm;72620;47.774;9.620;2024-03-08T11:57:24;60.47;52.36;69.82;;
82857;Laerm;72620;47.774;9.620;2024-03-08T11:59:53;61.87;52.56;75.31;;
82857;Laerm;72620;47.774;9.620;2024-03-08T12:02:23;60.82;52.94;69.93;;
82857;Laerm;72620;47.774;9.620;2024-03-08T12:04:58;62.99;54.13;73.34;;
82857;Laerm;72620;47.774;9.620;2024-03-08T12:07:27;61.00;53.13;70.27;;
82857;Laerm;72620;47.774;9.620;2024-03-08T12:10:20;61.63;51.02;72.19;;
82857;Laerm;72620;47.774;9.620;2024-03-08T12:12:52;59.69;50.85;69.23;;
82857;Laerm;72620;47.774;9.620;2024-03-08T12:15:23;59.06;53.58;66.78;;
82857;Laerm;72620;47.774;9.620;2024-03-08T12:17:54;60.44;53.62;72.44;;
82857;Laerm;72620;47.774;9.620;2024-03-08T12:20:28;59.75;50.11;67.81;;
82857;Laerm;72620;47.774;9.620;2024-03-08T12:22:58;60.33;50.04;67.65;;
82857;Laerm;72620;47.774;9.620;2024-03-08T12:25:30;60.02;50.57;70.47;;
82857;Laerm;72620;47.774;9.620;2024-03-08T12:28:12;57.15;49.94;68.25;;
82857;Laerm;72620;47.774;9.620;2024-03-08T12:30:50;61.56;50.83;73.16;;
82857;Laerm;72620;47.774;9.620;2024-03-08T12:33:22;61.81;49.88;74.95;;
82857;Laerm;72620;47.774;9.620;2024-03-08T12:35:54;65.51;51.62;72.02;;
82857;Laerm;72620;47.774;9.620;2024-03-08T12:38:24;65.77;51.26;73.07;;
82857;Laerm;72620;47.774;9.620;2024-03-08T12:41:01;66.06;52.25;75.51;;
82857;Laerm;72620;47.774;9.620;2024-03-08T12:43:31;65.92;51.19;73.76;;
82857;Laerm;72620;47.774;9.620;2024-03-08T12:46:00;66.16;51.49;72.24;;
82857;Laerm;72620;47.774;9.620;2024-03-08T12:48:27;65.64;51.65;72.81;;
82857;Laerm;72620;47.774;9.620;2024-03-08T12:50:55;67.35;56.60;73.42;;
82857;Laerm;72620;47.774;9.620;2024-03-08T12:53:22;64.80;54.52;70.49;;
82857;Laerm;72620;47.774;9.620;2024-03-08T12:55:50;66.20;52.51;77.25;;
82857;Laerm;72620;47.774;9.620;2024-03-08T12:58:18;65.76;51.65;73.19;;
82857;Laerm;72620;47.774;9.620;2024-03-08T13:00:47;65.95;54.39;75.14;;
82857;Laerm;72620;47.774;9.620;2024-03-08T13:03:19;65.62;53.35;73.61;;
82857;Laerm;72620;47.774;9.620;2024-03-08T13:05:46;65.46;54.29;73.94;;
82857;Laerm;72620;47.774;9.620;2024-03-08T13:08:15;64.95;53.04;70.85;;
82857;Laerm;72620;47.774;9.620;2024-03-08T13:10:43;65.95;56.21;70.52;;
82857;Laerm;72620;47.774;9.620;2024-03-08T13:13:11;65.61;53.28;72.95;;
82857;Laerm;72620;47.774;9.620;2024-03-08T13:15:42;66.28;55.53;70.86;;
82857;Laerm;72620;47.774;9.620;2024-03-08T13:18:10;65.23;51.42;74.19;;
82857;Laerm;72620;47.774;9.620;2024-03-08T13:20:38;65.63;52.23;76.78;;
82857;Laerm;72620;47.774;9.620;2024-03-08T13:23:13;65.66;52.26;73.30;;
82857;Laerm;72620;47.774;9.620;2024-03-08T13:25:41;65.43;52.31;72.52;;
82857;Laerm;72620;47.774;9.620;2024-03-08T13:28:10;67.05;53.50;77.96;;
82857;Laerm;72620;47.774;9.620;2024-03-08T13:30:37;65.42;53.17;72.45;;
82857;Laerm;72620;47.774;9.620;2024-03-08T13:33:05;65.82;52.19;71.85;;
82857;Laerm;72620;47.774;9.620;2024-03-08T13:35:34;66.83;57.34;71.21;;
82857;Laerm;72620;47.774;9.620;2024-03-08T13:38:01;67.21;52.64;76.42;;
82857;Laerm;72620;47.774;9.620;2024-03-08T13:40:31;67.37;52.87;76.06;;
82857;Laerm;72620;47.774;9.620;2024-03-08T13:42:58;66.99;56.63;72.18;;
82857;Laerm;72620;47.774;9.620;2024-03-08T13:45:28;67.45;58.23;75.29;;
82857;Laerm;72620;47.774;9.620;2024-03-08T13:47:56;65.87;53.08;74.07;;
82857;Laerm;72620;47.774;9.620;2024-03-08T13:50:23;66.91;55.59;72.64;;
82857;Laerm;72620;47.774;9.620;2024-03-08T13:52:51;66.34;55.21;71.84;;
82857;Laerm;72620;47.774;9.620;2024-03-08T13:55:23;66.68;54.00;75.59;;
82857;Laerm;72620;47.774;9.620;2024-03-08T13:57:53;67.00;58.11;77.42;;
82857;Laerm;72620;47.774;9.620;2024-03-08T14:00:20;66.55;56.81;72.82;;
82857;Laerm;72620;47.774;9.620;2024-03-08T14:02:51;66.78;57.74;72.38;;